sensor_id;sensor_type;location;lat;lon;timestamp;temperature;humidity
53053;DHT22;38934;52.690;6.184;2022-07-19T00:00:44;20.60;99.90
53053;DHT22;38934;52.690;6.184;2022-07-19T00:03:16;20.60;99.90
53053;DHT22;38934;52.690;6.184;2022-07-19T00:05:46;20.50;99.90
53053;DHT22;38934;52.690;6.184;2022-07-19T00:08:12;20.50;99.90
53053;DHT22;38934;52.690;6.184;2022-07-19T00:10:37;20.50;99.90
53053;DHT22;38934;52.690;6.184;2022-07-19T00:13:03;20.40;99.90
53053;DHT22;38934;52.690;6.184;2022-07-19T00:15:28;20.30;99.90
53053;DHT22;38934;52.690;6.184;2022-07-19T00:17:54;20.30;99.90
53053;DHT22;38934;52.690;6.184;2022-07-19T00:20:21;20.20;99.90
53053;DHT22;38934;52.690;6.184;2022-07-19T00:22:47;20.20;99.90
53053;DHT22;38934;52.690;6.184;2022-07-19T00:25:14;20.10;99.90
53053;DHT22;38934;52.690;6.184;2022-07-19T00:27:40;20.10;99.90
53053;DHT22;38934;52.690;6.184;2022-07-19T00:30:09;20.10;99.90
53053;DHT22;38934;52.690;6.184;2022-07-19T00:32:35;20.10;99.90
53053;DHT22;38934;52.690;6.184;2022-07-19T00:35:00;20.00;99.90
53053;DHT22;38934;52.690;6.184;2022-07-19T00:37:26;20.00;99.90
53053;DHT22;38934;52.690;6.184;2022-07-19T00:39:52;20.00;99.90
53053;DHT22;38934;52.690;6.184;2022-07-19T00:42:18;20.00;99.90
53053;DHT22;38934;52.690;6.184;2022-07-19T00:44:43;19.90;99.90
53053;DHT22;38934;52.690;6.184;2022-07-19T00:47:10;19.90;99.90
53053;DHT22;38934;52.690;6.184;2022-07-19T00:49:36;19.80;99.90
53053;DHT22;38934;52.690;6.184;2022-07-19T00:52:03;19.90;99.90
53053;DHT22;38934;52.690;6.184;2022-07-19T00:54:30;19.80;99.90
53053;DHT22;38934;52.690;6.184;2022-07-19T00:57:00;19.80;99.90
53053;DHT22;38934;52.690;6.184;2022-07-19T00:59:26;19.70;99.90
53053;DHT22;38934;52.690;6.184;2022-07-19T01:01:52;19.70;99.90
53053;DHT22;38934;52.690;6.184;2022-07-19T01:04:20;19.70;99.90
53053;DHT22;38934;52.690;6.184;2022-07-19T01:06:46;19.60;99.90
53053;DHT22;38934;52.690;6.184;2022-07-19T01:09:12;19.60;99.90
53053;DHT22;38934;52.690;6.184;2022-07-19T01:11:39;19.60;99.90
53053;DHT22;38934;52.690;6.184;2022-07-19T01:14:05;19.50;99.90
53053;DHT22;38934;52.690;6.184;2022-07-19T01:16:31;19.50;99.90
53053;DHT22;38934;52.690;6.184;2022-07-19T01:18:57;19.60;99.90
53053;DHT22;38934;52.690;6.184;2022-07-19T01:21:24;19.40;99.90
53053;DHT22;38934;52.690;6.184;2022-07-19T01:23:50;19.40;99.90
53053;DHT22;38934;52.690;6.184;2022-07-19T01:26:16;19.50;99.90
53053;DHT22;38934;52.690;6.184;2022-07-19T01:28:42;19.40;99.90
53053;DHT22;38934;52.690;6.184;2022-07-19T01:31:08;19.40;99.90
53053;DHT22;38934;52.690;6.184;2022-07-19T01:33:42;19.70;99.90
53053;DHT22;38934;52.690;6.184;2022-07-19T01:36:08;19.30;99.90
53053;DHT22;38934;52.690;6.184;2022-07-19T01:38:34;19.30;99.90
53053;DHT22;38934;52.690;6.184;2022-07-19T01:41:00;19.20;99.90
53053;DHT22;38934;52.690;6.184;2022-07-19T01:43:25;19.20;99.90
53053;DHT22;38934;52.690;6.184;2022-07-19T01:45:52;19.10;99.90
53053;DHT22;38934;52.690;6.184;2022-07-19T01:48:19;19.20;99.90
53053;DHT22;38934;52.690;6.184;2022-07-19T01:50:45;19.10;99.90
53053;DHT22;38934;52.690;6.184;2022-07-19T01:53:11;19.10;99.90
53053;DHT22;38934;52.690;6.184;2022-07-19T01:55:36;19.10;99.90
53053;DHT22;38934;52.690;6.184;2022-07-19T01:58:02;19.10;99.90
53053;DHT22;38934;52.690;6.184;2022-07-19T02:00:27;19.00;99.90
53053;DHT22;38934;52.690;6.184;2022-07-19T02:02:53;19.20;99.90
53053;DHT22;38934;52.690;6.184;2022-07-19T02:05:19;19.30;99.90
53053;DHT22;38934;52.690;6.184;2022-07-19T02:07:44;18.90;99.90
53053;DHT22;38934;52.690;6.184;2022-07-19T02:10:10;18.90;99.90
53053;DHT22;38934;52.690;6.184;2022-07-19T02:12:36;19.10;99.90
53053;DHT22;38934;52.690;6.184;2022-07-19T02:15:02;18.80;99.90
53053;DHT22;38934;52.690;6.184;2022-07-19T02:17:28;18.80;99.90
53053;DHT22;38934;52.690;6.184;2022-07-19T02:19:53;18.80;99.90
53053;DHT22;38934;52.690;6.184;2022-07-19T02:22:19;18.70;99.90
53053;DHT22;38934;52.690;6.184;2022-07-19T02:24:44;18.70;99.90
53053;DHT22;38934;52.690;6.184;2022-07-19T02:27:11;18.70;99.90
53053;DHT22;38934;52.690;6.184;2022-07-19T02:29:37;19.10;99.90
53053;DHT22;38934;52.690;6.184;2022-07-19T02:32:03;19.20;99.90
53053;DHT22;38934;52.690;6.184;2022-07-19T02:34:29;18.70;99.90
53053;DHT22;38934;52.690;6.184;2022-07-19T02:36:54;19.20;99.90
53053;DHT22;38934;52.690;6.184;2022-07-19T02:39:20;18.70;99.90
53053;DHT22;38934;52.690;6.184;2022-07-19T02:41:45;19.30;99.90
53053;DHT22;38934;52.690;6.184;2022-07-19T02:44:11;18.70;99.90
53053;DHT22;38934;52.690;6.184;2022-07-19T02:46:36;19.20;99.90
53053;DHT22;38934;52.690;6.184;2022-07-19T02:49:02;18.70;99.90
53053;DHT22;38934;52.690;6.184;2022-07-19T02:51:28;18.70;99.90
53053;DHT22;38934;52.690;6.184;2022-07-19T02:53:54;18.70;99.90
53053;DHT22;38934;52.690;6.184;2022-07-19T02:56:19;18.60;99.90
53053;DHT22;38934;52.690;6.184;2022-07-19T02:58:45;18.90;99.90
53053;DHT22;38934;52.690;6.184;2022-07-19T03:01:10;18.60;99.90
53053;DHT22;38934;52.690;6.184;2022-07-19T03:03:36;18.60;99.90
53053;DHT22;38934;52.690;6.184;2022-07-19T03:06:13;18.60;99.90
53053;DHT22;38934;52.690;6.184;2022-07-19T03:08:39;18.60;99.90
53053;DHT22;38934;52.690;6.184;2022-07-19T03:11:05;18.50;99.90
53053;DHT22;38934;52.690;6.184;2022-07-19T03:13:31;18.90;99.90
53053;DHT22;38934;52.690;6.184;2022-07-19T03:15:57;18.50;99.90
53053;DHT22;38934;52.690;6.184;2022-07-19T03:18:22;18.50;99.90
53053;DHT22;38934;52.690;6.184;2022-07-19T03:20:48;18.50;99.90
53053;DHT22;38934;52.690;6.184;2022-07-19T03:23:13;18.80;99.90
53053;DHT22;38934;52.690;6.184;2022-07-19T03:25:39;18.50;99.90
53053;DHT22;38934;52.690;6.184;2022-07-19T03:28:05;18.50;99.90
53053;DHT22;38934;52.690;6.184;2022-07-19T03:30:30;19.20;99.90
53053;DHT22;38934;52.690;6.184;2022-07-19T03:32:57;18.50;99.90
53053;DHT22;38934;52.690;6.184;2022-07-19T03:35:23;18.80;99.90
53053;DHT22;38934;52.690;6.184;2022-07-19T03:37:49;18.50;99.90
53053;DHT22;38934;52.690;6.184;2022-07-19T03:40:14;19.10;99.90
53053;DHT22;38934;52.690;6.184;2022-07-19T03:42:40;18.50;99.90
53053;DHT22;38934;52.690;6.184;2022-07-19T03:45:06;18.60;99.90
53053;DHT22;38934;52.690;6.184;2022-07-19T03:47:32;18.60;99.90
53053;DHT22;38934;52.690;6.184;2022-07-19T03:49:57;18.60;99.90
53053;DHT22;38934;52.690;6.184;2022-07-19T03:52:23;19.30;99.90
53053;DHT22;38934;52.690;6.184;2022-07-19T03:54:49;19.10;99.90
53053;DHT22;38934;52.690;6.184;2022-07-19T03:57:15;18.60;99.90
53053;DHT22;38934;52.690;6.184;2022-07-19T03:59:41;18.60;99.90
53053;DHT22;38934;52.690;6.184;2022-07-19T04:02:06;18.60;99.90
53053;DHT22;38934;52.690;6.184;2022-07-19T04:04:32;18.50;99.90
53053;DHT22;38934;52.690;6.184;2022-07-19T04:06:57;18.60;99.90
53053;DHT22;38934;52.690;6.184;2022-07-19T04:09:23;18.60;99.90
53053;DHT22;38934;52.690;6.184;2022-07-19T04:11:49;18.70;99.90
53053;DHT22;38934;52.690;6.184;2022-07-19T04:14:15;19.20;99.90
53053;DHT22;38934;52.690;6.184;2022-07-19T04:16:40;18.70;99.90
53053;DHT22;38934;52.690;6.184;2022-07-19T04:19:06;19.30;99.90
53053;DHT22;38934;52.690;6.184;2022-07-19T04:21:32;18.70;99.90
53053;DHT22;38934;52.690;6.184;2022-07-19T04:23:57;18.80;99.90
53053;DHT22;38934;52.690;6.184;2022-07-19T04:26:23;18.80;99.90
53053;DHT22;38934;52.690;6.184;2022-07-19T04:28:48;19.40;99.90
53053;DHT22;38934;52.690;6.184;2022-07-19T04:31:14;19.10;99.90
53053;DHT22;38934;52.690;6.184;2022-07-19T04:33:40;18.80;99.90
53053;DHT22;38934;52.690;6.184;2022-07-19T04:36:06;19.20;99.90
53053;DHT22;38934;52.690;6.184;2022-07-19T04:38:32;18.90;99.90
53053;DHT22;38934;52.690;6.184;2022-07-19T04:40:57;19.00;99.90
53053;DHT22;38934;52.690;6.184;2022-07-19T04:43:23;19.00;99.90
53053;DHT22;38934;52.690;6.184;2022-07-19T04:45:49;19.40;99.90
53053;DHT22;38934;52.690;6.184;2022-07-19T04:48:14;19.10;99.90
53053;DHT22;38934;52.690;6.184;2022-07-19T04:50:40;19.30;99.90
53053;DHT22;38934;52.690;6.184;2022-07-19T04:53:06;19.60;99.90
53053;DHT22;38934;52.690;6.184;2022-07-19T04:55:32;19.30;99.90
53053;DHT22;38934;52.690;6.184;2022-07-19T04:57:58;19.30;99.90
53053;DHT22;38934;52.690;6.184;2022-07-19T05:00:26;18.50;99.90
53053;DHT22;38934;52.690;6.184;2022-07-19T05:02:56;19.40;99.90
53053;DHT22;38934;52.690;6.184;2022-07-19T05:05:22;20.60;99.90
53053;DHT22;38934;52.690;6.184;2022-07-19T05:07:48;20.70;99.90
53053;DHT22;38934;52.690;6.184;2022-07-19T05:10:14;21.20;99.90
53053;DHT22;38934;52.690;6.184;2022-07-19T05:12:40;21.60;99.90
53053;DHT22;38934;52.690;6.184;2022-07-19T05:15:06;21.30;99.90
53053;DHT22;38934;52.690;6.184;2022-07-19T05:17:32;21.20;99.90
53053;DHT22;38934;52.690;6.184;2022-07-19T05:19:58;21.20;99.90
53053;DHT22;38934;52.690;6.184;2022-07-19T05:22:23;21.50;99.90
53053;DHT22;38934;52.690;6.184;2022-07-19T05:24:51;21.00;99.90
53053;DHT22;38934;52.690;6.184;2022-07-19T05:27:18;21.00;99.90
53053;DHT22;38934;52.690;6.184;2022-07-19T05:29:43;21.00;99.90
53053;DHT22;38934;52.690;6.184;2022-07-19T05:32:09;20.90;99.90
53053;DHT22;38934;52.690;6.184;2022-07-19T05:34:35;21.60;99.90
53053;DHT22;38934;52.690;6.184;2022-07-19T05:37:00;21.00;99.90
53053;DHT22;38934;52.690;6.184;2022-07-19T05:39:26;21.80;99.90
53053;DHT22;38934;52.690;6.184;2022-07-19T05:41:52;20.90;99.90
53053;DHT22;38934;52.690;6.184;2022-07-19T05:44:18;20.90;99.90
53053;DHT22;38934;52.690;6.184;2022-07-19T05:46:43;20.90;99.90
53053;DHT22;38934;52.690;6.184;2022-07-19T05:49:10;20.90;99.90
53053;DHT22;38934;52.690;6.184;2022-07-19T05:51:36;21.10;99.90
53053;DHT22;38934;52.690;6.184;2022-07-19T05:54:03;21.30;99.90
53053;DHT22;38934;52.690;6.184;2022-07-19T05:56:29;21.10;99.90
53053;DHT22;38934;52.690;6.184;2022-07-19T05:58:55;21.30;99.90
53053;DHT22;38934;52.690;6.184;2022-07-19T06:01:20;21.60;99.90
53053;DHT22;38934;52.690;6.184;2022-07-19T06:03:55;21.40;99.90
53053;DHT22;38934;52.690;6.184;2022-07-19T06:06:22;22.00;99.90
53053;DHT22;38934;52.690;6.184;2022-07-19T06:08:48;22.70;99.90
53053;DHT22;38934;52.690;6.184;2022-07-19T06:11:15;23.60;99.90
53053;DHT22;38934;52.690;6.184;2022-07-19T06:13:42;24.30;99.90
53053;DHT22;38934;52.690;6.184;2022-07-19T06:16:08;25.10;99.90
53053;DHT22;38934;52.690;6.184;2022-07-19T06:18:34;25.50;99.90
53053;DHT22;38934;52.690;6.184;2022-07-19T06:21:11;26.20;99.90
53053;DHT22;38934;52.690;6.184;2022-07-19T06:23:38;26.50;99.90
53053;DHT22;38934;52.690;6.184;2022-07-19T06:26:05;26.70;99.90
53053;DHT22;38934;52.690;6.184;2022-07-19T06:28:31;26.30;98.90
53053;DHT22;38934;52.690;6.184;2022-07-19T06:30:57;25.90;98.30
53053;DHT22;38934;52.690;6.184;2022-07-19T06:33:22;25.90;98.00
53053;DHT22;38934;52.690;6.184;2022-07-19T06:35:48;25.10;98.10
53053;DHT22;38934;52.690;6.184;2022-07-19T06:38:14;24.80;98.70
53053;DHT22;38934;52.690;6.184;2022-07-19T06:40:39;24.60;99.70
53053;DHT22;38934;52.690;6.184;2022-07-19T06:43:05;23.70;99.90
53053;DHT22;38934;52.690;6.184;2022-07-19T06:45:31;24.40;99.90
53053;DHT22;38934;52.690;6.184;2022-07-19T06:47:57;24.70;99.90
53053;DHT22;38934;52.690;6.184;2022-07-19T06:50:22;25.30;99.90
53053;DHT22;38934;52.690;6.184;2022-07-19T06:52:48;26.50;99.40
53053;DHT22;38934;52.690;6.184;2022-07-19T06:55:14;27.50;97.90
53053;DHT22;38934;52.690;6.184;2022-07-19T06:57:40;28.40;96.20
53053;DHT22;38934;52.690;6.184;2022-07-19T07:00:07;29.20;94.70
53053;DHT22;38934;52.690;6.184;2022-07-19T07:02:37;29.80;92.70
53053;DHT22;38934;52.690;6.184;2022-07-19T07:05:04;30.30;89.00
53053;DHT22;38934;52.690;6.184;2022-07-19T07:07:30;30.70;86.10
53053;DHT22;38934;52.690;6.184;2022-07-19T07:09:55;31.10;82.00
53053;DHT22;38934;52.690;6.184;2022-07-19T07:12:21;31.30;79.00
53053;DHT22;38934;52.690;6.184;2022-07-19T07:14:47;31.60;77.20
53053;DHT22;38934;52.690;6.184;2022-07-19T07:17:12;31.80;75.10
53053;DHT22;38934;52.690;6.184;2022-07-19T07:19:38;32.10;74.40
53053;DHT22;38934;52.690;6.184;2022-07-19T07:22:03;32.30;72.30
53053;DHT22;38934;52.690;6.184;2022-07-19T07:24:29;32.90;71.10
53053;DHT22;38934;52.690;6.184;2022-07-19T07:26:55;33.00;69.70
53053;DHT22;38934;52.690;6.184;2022-07-19T07:29:21;33.30;68.30
53053;DHT22;38934;52.690;6.184;2022-07-19T07:31:46;33.40;66.10
53053;DHT22;38934;52.690;6.184;2022-07-19T07:34:12;33.40;65.30
53053;DHT22;38934;52.690;6.184;2022-07-19T07:36:38;33.60;64.60
53053;DHT22;38934;52.690;6.184;2022-07-19T07:39:04;33.90;63.80
53053;DHT22;38934;52.690;6.184;2022-07-19T07:41:29;33.70;61.80
53053;DHT22;38934;52.690;6.184;2022-07-19T07:43:55;34.10;62.00
53053;DHT22;38934;52.690;6.184;2022-07-19T07:46:21;34.20;61.80
53053;DHT22;38934;52.690;6.184;2022-07-19T07:48:46;34.30;60.40
53053;DHT22;38934;52.690;6.184;2022-07-19T07:51:12;34.30;59.60
53053;DHT22;38934;52.690;6.184;2022-07-19T07:53:38;34.50;59.40
53053;DHT22;38934;52.690;6.184;2022-07-19T07:56:03;34.90;59.70
53053;DHT22;38934;52.690;6.184;2022-07-19T07:58:29;35.00;58.50
53053;DHT22;38934;52.690;6.184;2022-07-19T08:00:55;35.00;57.80
53053;DHT22;38934;52.690;6.184;2022-07-19T08:03:20;34.90;57.80
53053;DHT22;38934;52.690;6.184;2022-07-19T08:05:46;35.20;57.70
53053;DHT22;38934;52.690;6.184;2022-07-19T08:08:16;35.40;57.50
53053;DHT22;38934;52.690;6.184;2022-07-19T08:10:42;35.40;56.70
53053;DHT22;38934;52.690;6.184;2022-07-19T08:13:08;35.40;56.50
53053;DHT22;38934;52.690;6.184;2022-07-19T08:15:38;35.50;56.20
53053;DHT22;38934;52.690;6.184;2022-07-19T08:18:04;35.90;56.00
53053;DHT22;38934;52.690;6.184;2022-07-19T08:20:30;35.90;55.30
53053;DHT22;38934;52.690;6.184;2022-07-19T08:22:55;35.80;53.90
53053;DHT22;38934;52.690;6.184;2022-07-19T08:25:21;36.10;54.30
53053;DHT22;38934;52.690;6.184;2022-07-19T08:27:46;36.10;53.90
53053;DHT22;38934;52.690;6.184;2022-07-19T08:30:13;36.10;53.50
53053;DHT22;38934;52.690;6.184;2022-07-19T08:32:39;35.90;53.00
53053;DHT22;38934;52.690;6.184;2022-07-19T08:35:06;36.20;53.20
53053;DHT22;38934;52.690;6.184;2022-07-19T08:37:32;36.30;53.00
53053;DHT22;38934;52.690;6.184;2022-07-19T08:39:58;36.30;52.70
53053;DHT22;38934;52.690;6.184;2022-07-19T08:42:24;36.50;52.70
53053;DHT22;38934;52.690;6.184;2022-07-19T08:44:52;36.80;53.00
53053;DHT22;38934;52.690;6.184;2022-07-19T08:47:19;36.90;53.50
53053;DHT22;38934;52.690;6.184;2022-07-19T08:49:45;37.20;52.90
53053;DHT22;38934;52.690;6.184;2022-07-19T08:52:12;37.40;52.50
53053;DHT22;38934;52.690;6.184;2022-07-19T08:54:38;37.40;51.80
53053;DHT22;38934;52.690;6.184;2022-07-19T08:57:04;37.30;51.60
53053;DHT22;38934;52.690;6.184;2022-07-19T08:59:48;37.40;51.60
53053;DHT22;38934;52.690;6.184;2022-07-19T09:02:14;37.70;51.60
53053;DHT22;38934;52.690;6.184;2022-07-19T09:04:40;37.60;51.20
53053;DHT22;38934;52.690;6.184;2022-07-19T09:07:05;37.90;51.30
53053;DHT22;38934;52.690;6.184;2022-07-19T09:09:33;37.80;50.30
53053;DHT22;38934;52.690;6.184;2022-07-19T09:12:01;38.10;49.60
53053;DHT22;38934;52.690;6.184;2022-07-19T09:14:32;37.90;49.40
53053;DHT22;38934;52.690;6.184;2022-07-19T09:19:28;38.10;49.00
53053;DHT22;38934;52.690;6.184;2022-07-19T09:24:21;38.30;48.20
53053;DHT22;38934;52.690;6.184;2022-07-19T09:29:29;38.50;47.60
53053;DHT22;38934;52.690;6.184;2022-07-19T09:32:03;38.20;47.10
53053;DHT22;38934;52.690;6.184;2022-07-19T09:34:34;38.00;46.60
53053;DHT22;38934;52.690;6.184;2022-07-19T09:37:13;38.10;46.20
53053;DHT22;38934;52.690;6.184;2022-07-19T09:39:40;38.10;46.20
53053;DHT22;38934;52.690;6.184;2022-07-19T09:42:17;38.10;45.80
53053;DHT22;38934;52.690;6.184;2022-07-19T09:44:43;37.90;45.00
53053;DHT22;38934;52.690;6.184;2022-07-19T09:47:09;38.00;45.60
53053;DHT22;38934;52.690;6.184;2022-07-19T09:49:35;38.10;45.10
53053;DHT22;38934;52.690;6.184;2022-07-19T09:52:01;37.90;44.00
53053;DHT22;38934;52.690;6.184;2022-07-19T09:54:29;38.00;43.60
53053;DHT22;38934;52.690;6.184;2022-07-19T09:56:56;38.10;43.80
53053;DHT22;38934;52.690;6.184;2022-07-19T09:59:24;38.20;43.60
53053;DHT22;38934;52.690;6.184;2022-07-19T10:01:52;38.30;43.60
53053;DHT22;38934;52.690;6.184;2022-07-19T10:04:21;38.10;43.20
53053;DHT22;38934;52.690;6.184;2022-07-19T10:06:48;38.10;43.70
53053;DHT22;38934;52.690;6.184;2022-07-19T10:09:16;38.10;42.90
53053;DHT22;38934;52.690;6.184;2022-07-19T10:11:43;38.30;43.20
53053;DHT22;38934;52.690;6.184;2022-07-19T10:14:09;38.30;43.20
53053;DHT22;38934;52.690;6.184;2022-07-19T10:19:19;38.30;41.40
53053;DHT22;38934;52.690;6.184;2022-07-19T10:21:48;38.30;41.10
53053;DHT22;38934;52.690;6.184;2022-07-19T10:24:54;38.40;41.50
53053;DHT22;38934;52.690;6.184;2022-07-19T10:30:15;38.10;42.10
53053;DHT22;38934;52.690;6.184;2022-07-19T10:32:46;38.10;42.00
53053;DHT22;38934;52.690;6.184;2022-07-19T10:35:28;37.80;41.90
53053;DHT22;38934;52.690;6.184;2022-07-19T10:40:42;37.50;41.60
53053;DHT22;38934;52.690;6.184;2022-07-19T10:43:10;37.40;41.30
53053;DHT22;38934;52.690;6.184;2022-07-19T10:45:38;37.20;41.40
53053;DHT22;38934;52.690;6.184;2022-07-19T10:48:06;37.30;41.40
53053;DHT22;38934;52.690;6.184;2022-07-19T10:50:44;37.20;41.10
53053;DHT22;38934;52.690;6.184;2022-07-19T10:53:09;37.20;40.90
53053;DHT22;38934;52.690;6.184;2022-07-19T10:55:35;37.10;40.80
53053;DHT22;38934;52.690;6.184;2022-07-19T11:00:32;36.90;41.20
53053;DHT22;38934;52.690;6.184;2022-07-19T11:05:49;36.90;40.90
53053;DHT22;38934;52.690;6.184;2022-07-19T11:08:15;36.80;40.90
53053;DHT22;38934;52.690;6.184;2022-07-19T11:10:41;36.80;41.10
53053;DHT22;38934;52.690;6.184;2022-07-19T11:13:07;36.90;41.40
53053;DHT22;38934;52.690;6.184;2022-07-19T11:15:33;37.00;41.30
53053;DHT22;38934;52.690;6.184;2022-07-19T11:18:01;36.90;41.00
53053;DHT22;38934;52.690;6.184;2022-07-19T11:20:28;37.00;41.00
53053;DHT22;38934;52.690;6.184;2022-07-19T11:22:55;37.10;41.10
53053;DHT22;38934;52.690;6.184;2022-07-19T11:25:35;37.00;41.00
53053;DHT22;38934;52.690;6.184;2022-07-19T11:28:21;37.10;41.10
53053;DHT22;38934;52.690;6.184;2022-07-19T11:30:47;37.10;40.90
53053;DHT22;38934;52.690;6.184;2022-07-19T11:33:16;37.10;41.20
53053;DHT22;38934;52.690;6.184;2022-07-19T11:35:59;37.10;40.40
53053;DHT22;38934;52.690;6.184;2022-07-19T11:38:39;37.00;39.40
53053;DHT22;38934;52.690;6.184;2022-07-19T11:41:19;37.00;40.00
53053;DHT22;38934;52.690;6.184;2022-07-19T11:44:03;37.00;39.40
53053;DHT22;38934;52.690;6.184;2022-07-19T11:46:31;37.00;41.10
53053;DHT22;38934;52.690;6.184;2022-07-19T11:49:02;37.00;40.70
53053;DHT22;38934;52.690;6.184;2022-07-19T11:51:28;37.00;40.30
53053;DHT22;38934;52.690;6.184;2022-07-19T11:53:56;37.40;40.90
53053;DHT22;38934;52.690;6.184;2022-07-19T11:56:28;37.20;41.30
53053;DHT22;38934;52.690;6.184;2022-07-19T11:58:56;37.30;40.80
53053;DHT22;38934;52.690;6.184;2022-07-19T12:01:31;37.40;40.50
53053;DHT22;38934;52.690;6.184;2022-07-19T12:03:58;37.40;40.10
53053;DHT22;38934;52.690;6.184;2022-07-19T12:06:42;37.40;39.80
53053;DHT22;38934;52.690;6.184;2022-07-19T12:09:16;37.50;39.90
53053;DHT22;38934;52.690;6.184;2022-07-19T12:11:45;37.60;39.10
53053;DHT22;38934;52.690;6.184;2022-07-19T12:14:29;37.70;39.70
53053;DHT22;38934;52.690;6.184;2022-07-19T12:17:20;37.70;38.00
53053;DHT22;38934;52.690;6.184;2022-07-19T12:19:51;37.60;37.80
53053;DHT22;38934;52.690;6.184;2022-07-19T12:24:56;37.40;37.90
53053;DHT22;38934;52.690;6.184;2022-07-19T12:27:21;37.30;38.10
53053;DHT22;38934;52.690;6.184;2022-07-19T12:29:56;37.20;38.80
53053;DHT22;38934;52.690;6.184;2022-07-19T12:32:30;37.40;38.80
53053;DHT22;38934;52.690;6.184;2022-07-19T12:35:15;37.40;38.60
53053;DHT22;38934;52.690;6.184;2022-07-19T12:37:48;37.50;38.10
53053;DHT22;38934;52.690;6.184;2022-07-19T12:40:24;37.50;38.90
53053;DHT22;38934;52.690;6.184;2022-07-19T12:42:52;37.50;37.60
53053;DHT22;38934;52.690;6.184;2022-07-19T12:45:36;37.60;38.30
53053;DHT22;38934;52.690;6.184;2022-07-19T12:48:05;37.60;38.00
53053;DHT22;38934;52.690;6.184;2022-07-19T12:50:32;37.80;37.70
53053;DHT22;38934;52.690;6.184;2022-07-19T12:53:00;37.80;37.60
53053;DHT22;38934;52.690;6.184;2022-07-19T12:55:27;37.90;37.70
53053;DHT22;38934;52.690;6.184;2022-07-19T12:57:55;38.00;37.60
53053;DHT22;38934;52.690;6.184;2022-07-19T13:00:22;38.00;36.50
53053;DHT22;38934;52.690;6.184;2022-07-19T13:02:49;37.90;36.80
53053;DHT22;38934;52.690;6.184;2022-07-19T13:05:16;37.80;37.50
53053;DHT22;38934;52.690;6.184;2022-07-19T13:07:42;37.80;37.10
53053;DHT22;38934;52.690;6.184;2022-07-19T13:10:08;38.00;37.20
53053;DHT22;38934;52.690;6.184;2022-07-19T13:12:35;38.00;37.20
53053;DHT22;38934;52.690;6.184;2022-07-19T13:15:01;37.90;36.90
53053;DHT22;38934;52.690;6.184;2022-07-19T13:17:27;38.10;37.00
53053;DHT22;38934;52.690;6.184;2022-07-19T13:19:53;38.10;36.90
53053;DHT22;38934;52.690;6.184;2022-07-19T13:22:19;38.20;36.20
53053;DHT22;38934;52.690;6.184;2022-07-19T13:24:44;38.20;35.40
53053;DHT22;38934;52.690;6.184;2022-07-19T13:27:10;38.10;35.40
53053;DHT22;38934;52.690;6.184;2022-07-19T13:29:36;38.00;35.80
53053;DHT22;38934;52.690;6.184;2022-07-19T13:32:04;38.20;36.00
53053;DHT22;38934;52.690;6.184;2022-07-19T13:34:29;38.30;36.20
53053;DHT22;38934;52.690;6.184;2022-07-19T13:36:55;38.40;35.70
53053;DHT22;38934;52.690;6.184;2022-07-19T13:39:22;38.40;35.80
53053;DHT22;38934;52.690;6.184;2022-07-19T13:41:48;38.40;35.90
53053;DHT22;38934;52.690;6.184;2022-07-19T13:44:14;38.40;35.70
53053;DHT22;38934;52.690;6.184;2022-07-19T13:46:40;38.50;35.50
53053;DHT22;38934;52.690;6.184;2022-07-19T13:49:06;38.60;36.00
53053;DHT22;38934;52.690;6.184;2022-07-19T13:51:31;38.60;35.80
53053;DHT22;38934;52.690;6.184;2022-07-19T13:53:57;38.50;35.80
53053;DHT22;38934;52.690;6.184;2022-07-19T13:56:23;38.50;35.90
53053;DHT22;38934;52.690;6.184;2022-07-19T13:58:49;38.50;35.80
53053;DHT22;38934;52.690;6.184;2022-07-19T14:01:15;38.50;35.70
53053;DHT22;38934;52.690;6.184;2022-07-19T14:03:41;38.40;36.00
53053;DHT22;38934;52.690;6.184;2022-07-19T14:06:07;38.40;35.20
53053;DHT22;38934;52.690;6.184;2022-07-19T14:08:33;38.40;35.70
53053;DHT22;38934;52.690;6.184;2022-07-19T14:10:59;38.50;36.30
53053;DHT22;38934;52.690;6.184;2022-07-19T14:13:25;38.40;36.40
53053;DHT22;38934;52.690;6.184;2022-07-19T14:15:51;38.50;36.00
53053;DHT22;38934;52.690;6.184;2022-07-19T14:18:16;38.60;36.30
53053;DHT22;38934;52.690;6.184;2022-07-19T14:20:42;38.60;36.40
53053;DHT22;38934;52.690;6.184;2022-07-19T14:23:12;38.80;36.20
53053;DHT22;38934;52.690;6.184;2022-07-19T14:25:39;38.50;35.90
53053;DHT22;38934;52.690;6.184;2022-07-19T14:28:05;38.70;36.40
53053;DHT22;38934;52.690;6.184;2022-07-19T14:30:30;38.90;36.50
53053;DHT22;38934;52.690;6.184;2022-07-19T14:32:56;38.70;36.00
53053;DHT22;38934;52.690;6.184;2022-07-19T14:35:22;38.70;36.20
53053;DHT22;38934;52.690;6.184;2022-07-19T14:37:48;38.70;35.60
53053;DHT22;38934;52.690;6.184;2022-07-19T14:40:14;38.70;35.40
53053;DHT22;38934;52.690;6.184;2022-07-19T14:42:40;38.70;35.60
53053;DHT22;38934;52.690;6.184;2022-07-19T14:45:07;38.80;35.90
53053;DHT22;38934;52.690;6.184;2022-07-19T14:47:34;38.90;36.00
53053;DHT22;38934;52.690;6.184;2022-07-19T14:50:00;39.00;36.50
53053;DHT22;38934;52.690;6.184;2022-07-19T14:52:27;39.00;36.00
53053;DHT22;38934;52.690;6.184;2022-07-19T14:54:53;39.10;36.20
53053;DHT22;38934;52.690;6.184;2022-07-19T14:57:19;39.20;36.50
53053;DHT22;38934;52.690;6.184;2022-07-19T14:59:44;39.20;36.00
53053;DHT22;38934;52.690;6.184;2022-07-19T15:02:10;39.20;35.70
53053;DHT22;38934;52.690;6.184;2022-07-19T15:04:36;39.20;36.10
53053;DHT22;38934;52.690;6.184;2022-07-19T15:07:02;39.20;35.90
53053;DHT22;38934;52.690;6.184;2022-07-19T15:09:28;38.90;35.30
53053;DHT22;38934;52.690;6.184;2022-07-19T15:11:53;39.20;35.40
53053;DHT22;38934;52.690;6.184;2022-07-19T15:14:19;39.00;35.50
53053;DHT22;38934;52.690;6.184;2022-07-19T15:16:45;39.10;35.60
53053;DHT22;38934;52.690;6.184;2022-07-19T15:19:11;38.90;35.70
53053;DHT22;38934;52.690;6.184;2022-07-19T15:21:37;38.80;35.00
53053;DHT22;38934;52.690;6.184;2022-07-19T15:24:04;38.80;35.70
53053;DHT22;38934;52.690;6.184;2022-07-19T15:26:30;38.70;36.00
53053;DHT22;38934;52.690;6.184;2022-07-19T15:28:56;38.70;35.00
53053;DHT22;38934;52.690;6.184;2022-07-19T15:31:21;38.70;35.00
53053;DHT22;38934;52.690;6.184;2022-07-19T15:33:47;38.60;35.00
53053;DHT22;38934;52.690;6.184;2022-07-19T15:36:13;38.60;35.80
53053;DHT22;38934;52.690;6.184;2022-07-19T15:38:38;38.70;35.60
53053;DHT22;38934;52.690;6.184;2022-07-19T15:41:04;38.70;34.90
53053;DHT22;38934;52.690;6.184;2022-07-19T15:43:30;38.70;34.90
53053;DHT22;38934;52.690;6.184;2022-07-19T15:45:56;38.60;35.10
53053;DHT22;38934;52.690;6.184;2022-07-19T15:48:21;38.60;34.50
53053;DHT22;38934;52.690;6.184;2022-07-19T15:50:47;38.70;35.00
53053;DHT22;38934;52.690;6.184;2022-07-19T15:53:13;38.60;34.70